Airfield :
LOGIN :

Register | Disclaimer

   EN    FR    IT 

 










Legend :    VFR   Marginal VFR   IFR   Intensive IFR   Very Intensive IFR
Visi :
Ceiling :
>= 8 km
>= 3000ft
5 to 8 km
1000 to 3000 ft
1500m to 5 km
500 to 1000 ft
800 to 1500m
200 to 500 ft
< 800m
< 200 ft
Symbols :   Thunderstorms  Fog  Heavy snow  Heavy precipitations  Wind > 20 kt
SIGMETs :     Misc.  Thunderstorms  Icing  Turbulence  Mountain Waves  Volcanic Ashes






- Airport Elevation : 995 ft
- IATA code : KTW


EPKT - Katowice

CURRENT METAR :
  • 032100Z 07003KT CAVOK 15/14 Q1018

EXPIRED METARs :
  • 032030Z 07003KT CAVOK 17/14 Q1018
  • 032000Z 06002KT CAVOK 17/14 Q1018
  • 031930Z VRB02KT CAVOK 18/15 Q1018
  • 031900Z 04002KT CAVOK 20/15 Q1018
  • 031830Z 05005KT CAVOK 22/14 Q1018

TAF TAF EPKT
Valid from the 03 at 18:00 until the 04 at 18:00 UTC


031730Z 0318/0418 VRB02KT CAVOK
TEMPO 0323/0404 4000 BR
TEMPO 0415/0418 SHRA BKN045CB



MET'MAP, your aeronautical weather chart ! - Copyright ORBIFLY December 2007 - Disclaimer

ORBIFLY MET'MAP TEAM :

Programming & Development : Alexandra Zaïnal
Original concept : Baudouin d'Aumeries
Technical & hardware support : Manuel Goepfert
Assistance : Marc-Olivier Méhu




SOURCES & CREDITS :

   NOAA